Time;durP1;ratioP1;P1;durP2;ratioP2;P2;SDS_P1;SDS_P2;PMS_P1;PMS_P2;Temp;Humidity;BMP_temperature;BMP_pressure;BME280_temperature;BME280_humidity;BME280_pressure;Samples;Min_cycle;Max_cycle;Signal;HPM_P1;HPM_P2
2024/04/07 00:00:40;;;;;;;0.85;0.85;;;15.70;99.90;;;;;;4447289;32;20539;-65
2024/04/07 00:03:05;;;;;;;47.60;1.52;;;15.70;99.90;;;;;;4443985;32;20085;-64
2024/04/07 00:05:31;;;;;;;2.72;0.65;;;15.70;99.90;;;;;;4446590;32;20080;-64
2024/04/07 00:07:57;;;;;;;0.75;0.70;;;15.60;99.90;;;;;;4443472;32;20476;-65
2024/04/07 00:10:22;;;;;;;0.75;0.65;;;15.60;99.90;;;;;;4442832;32;20434;-65
2024/04/07 00:12:48;;;;;;;0.55;0.55;;;15.50;99.90;;;;;;4446463;32;20077;-64
2024/04/07 00:15:13;;;;;;;3.22;1.77;;;15.50;99.90;;;;;;4441895;32;20092;-66
2024/04/07 00:17:40;;;;;;;0.95;0.90;;;15.50;99.90;;;;;;4446367;32;20204;-65
2024/04/07 00:20:06;;;;;;;2.08;0.85;;;15.40;99.90;;;;;;4444737;32;20064;-65
2024/04/07 00:22:32;;;;;;;1.30;0.62;;;15.40;99.90;;;;;;4445554;32;20175;-67
2024/04/07 00:24:58;;;;;;;0.57;0.52;;;15.50;99.90;;;;;;4445108;32;20520;-65
2024/04/07 00:27:23;;;;;;;0.60;0.60;;;15.60;99.90;;;;;;4446062;32;20107;-65
2024/04/07 00:29:50;;;;;;;0.40;0.40;;;15.60;99.90;;;;;;4448015;32;20073;-65
2024/04/07 00:32:16;;;;;;;3.47;1.17;;;15.60;99.90;;;;;;4445959;32;20116;-66
2024/04/07 00:34:43;;;;;;;2.08;0.80;;;15.50;99.90;;;;;;4447304;32;20101;-64
2024/04/07 00:37:08;;;;;;;0.50;0.50;;;15.40;99.90;;;;;;4444069;32;20504;-64
2024/04/07 00:39:34;;;;;;;0.52;0.52;;;15.40;99.90;;;;;;4444872;32;20089;-64
2024/04/07 00:42:00;;;;;;;0.55;0.55;;;15.50;99.90;;;;;;4443473;32;20081;-64
2024/04/07 00:44:25;;;;;;;0.50;0.50;;;15.50;99.90;;;;;;4446924;32;20068;-64
2024/04/07 00:46:51;;;;;;;0.52;0.52;;;15.60;99.90;;;;;;4443946;32;20500;-63
2024/04/07 00:49:16;;;;;;;10.85;1.50;;;15.80;99.90;;;;;;4440409;32;20072;-64
2024/04/07 00:51:43;;;;;;;0.77;0.77;;;15.90;99.90;;;;;;4442942;32;20066;-66
2024/04/07 00:54:11;;;;;;;0.88;0.70;;;16.00;99.90;;;;;;4448852;32;20551;-64
2024/04/07 00:56:36;;;;;;;0.57;0.57;;;16.00;99.90;;;;;;4447938;32;20512;-63
2024/04/07 00:59:02;;;;;;;2.92;1.35;;;16.10;99.90;;;;;;4451330;32;20150;-63
2024/04/07 01:01:28;;;;;;;0.52;0.52;;;16.00;99.90;;;;;;4448253;32;20460;-63
2024/04/07 01:03:54;;;;;;;0.80;0.80;;;16.00;99.90;;;;;;4445039;32;20089;-64
2024/04/07 01:06:19;;;;;;;0.50;0.50;;;15.90;99.90;;;;;;4443657;32;20061;-64
2024/04/07 01:08:46;;;;;;;0.93;0.70;;;15.80;99.90;;;;;;4447908;32;20123;-63
2024/04/07 01:11:12;;;;;;;0.50;0.50;;;15.60;99.90;;;;;;4447558;32;20417;-63
2024/04/07 01:13:37;;;;;;;0.30;0.30;;;15.50;99.90;;;;;;4449602;32;20080;-63
2024/04/07 01:16:03;;;;;;;0.50;0.50;;;15.40;99.90;;;;;;4446206;32;20069;-65
2024/04/07 01:18:28;;;;;;;0.70;0.70;;;15.30;99.90;;;;;;4436494;32;20135;-63
2024/04/07 01:20:54;;;;;;;0.40;0.40;;;15.30;99.90;;;;;;4438258;32;20369;-63
2024/04/07 01:23:19;;;;;;;2.80;0.88;;;15.30;99.90;;;;;;4448544;32;20080;-63
2024/04/07 01:25:45;;;;;;;1.60;1.10;;;15.30;99.90;;;;;;4447293;32;20123;-63
2024/04/07 01:28:12;;;;;;;0.50;0.50;;;15.40;99.90;;;;;;4446569;32;20132;-64
2024/04/07 01:30:37;;;;;;;0.50;0.50;;;15.40;99.90;;;;;;4447355;32;20178;-63
2024/04/07 01:33:03;;;;;;;0.40;0.40;;;15.50;99.90;;;;;;4446260;32;20135;-64
2024/04/07 01:35:29;;;;;;;0.50;0.50;;;15.60;99.90;;;;;;4446217;32;20124;-63
2024/04/07 01:37:55;;;;;;;0.95;0.95;;;15.70;99.90;;;;;;4445951;32;20092;-64
2024/04/07 01:40:21;;;;;;;0.68;0.60;;;15.70;99.90;;;;;;4447088;32;20119;-63
2024/04/07 01:42:46;;;;;;;0.65;0.65;;;15.70;99.90;;;;;;4448393;32;20113;-64
2024/04/07 01:45:12;;;;;;;0.80;0.70;;;15.80;99.90;;;;;;4446082;32;20574;-63
2024/04/07 01:47:37;;;;;;;0.52;0.52;;;15.80;99.90;;;;;;4447572;32;20076;-64
2024/04/07 01:50:04;;;;;;;0.85;0.85;;;15.80;99.90;;;;;;4448986;32;20069;-64
2024/04/07 01:52:29;;;;;;;0.50;0.50;;;15.90;99.90;;;;;;4447087;32;20495;-63
2024/04/07 01:54:56;;;;;;;0.57;0.57;;;15.80;99.90;;;;;;4446264;32;20127;-63
2024/04/07 01:57:22;;;;;;;0.60;0.60;;;15.80;99.90;;;;;;4444275;32;20088;-64
2024/04/07 01:59:48;;;;;;;0.60;0.60;;;15.80;99.90;;;;;;4442673;32;20541;-63
2024/04/07 02:02:14;;;;;;;0.60;0.60;;;15.80;99.90;;;;;;4448082;32;20064;-64
2024/04/07 02:04:40;;;;;;;1.02;0.98;;;15.70;99.90;;;;;;4448088;32;20064;-62
2024/04/07 02:07:05;;;;;;;0.43;0.43;;;15.70;99.90;;;;;;4444502;32;20073;-63
2024/04/07 02:09:31;;;;;;;1.08;0.80;;;15.70;99.90;;;;;;4446333;32;20085;-63
2024/04/07 02:11:57;;;;;;;0.65;0.65;;;15.60;99.90;;;;;;4447889;32;20540;-62
2024/04/07 02:14:22;;;;;;;0.50;0.50;;;15.70;99.90;;;;;;4445357;32;20077;-64
2024/04/07 02:16:47;;;;;;;1.08;0.70;;;15.60;99.90;;;;;;4448201;32;20080;-64
2024/04/07 02:19:13;;;;;;;1.90;0.90;;;15.60;99.90;;;;;;4448274;32;20139;-64
2024/04/07 02:21:39;;;;;;;0.50;0.50;;;15.60;99.90;;;;;;4446140;32;20084;-63
2024/04/07 02:24:05;;;;;;;0.85;0.85;;;15.60;99.90;;;;;;4446887;32;20132;-63
2024/04/07 02:26:31;;;;;;;0.65;0.65;;;15.60;99.90;;;;;;4446367;32;20089;-64
2024/04/07 02:28:57;;;;;;;0.40;0.40;;;15.60;99.90;;;;;;4440171;32;20176;-64
2024/04/07 02:31:22;;;;;;;0.60;0.60;;;15.50;99.90;;;;;;4444274;32;21024;-64
2024/04/07 02:33:48;;;;;;;0.62;0.62;;;15.50;99.90;;;;;;4447818;32;20065;-63
2024/04/07 02:36:14;;;;;;;0.60;0.60;;;15.50;99.90;;;;;;4443969;32;20080;-64
2024/04/07 02:38:39;;;;;;;2.08;0.80;;;15.50;99.90;;;;;;4445621;32;20193;-64
2024/04/07 02:41:05;;;;;;;0.60;0.60;;;15.50;99.90;;;;;;4446011;32;20088;-63
2024/04/07 02:43:31;;;;;;;0.60;0.60;;;15.50;99.90;;;;;;4448143;32;20131;-63
2024/04/07 02:48:05;;;;;;;0.62;0.62;;;15.50;99.90;;;;;;4444855;32;20519;-63
2024/04/07 02:48:44;;;;;;;0.50;0.50;;;15.60;99.90;;;;;;4427915;32;21030;-64
2024/04/07 02:51:09;;;;;;;0.70;0.70;;;15.50;99.90;;;;;;4444187;32;20080;-63
2024/04/07 02:53:35;;;;;;;0.50;0.50;;;15.40;99.90;;;;;;4445749;32;20120;-64
2024/04/07 02:56:00;;;;;;;0.85;0.73;;;15.50;99.90;;;;;;4444920;32;20097;-63
2024/04/07 02:58:26;;;;;;;3.45;0.90;;;15.40;99.90;;;;;;4446617;32;20088;-63
2024/04/07 03:00:51;;;;;;;0.52;0.52;;;15.40;99.90;;;;;;4446138;32;20068;-64
2024/04/07 03:03:17;;;;;;;2.17;1.52;;;15.40;99.90;;;;;;4447455;32;20551;-64
2024/04/07 03:05:42;;;;;;;0.40;0.40;;;15.30;99.90;;;;;;4444984;32;20097;-63
2024/04/07 03:08:08;;;;;;;0.70;0.70;;;15.40;99.90;;;;;;4445074;32;20515;-64
2024/04/07 03:10:33;;;;;;;0.85;0.70;;;15.30;99.90;;;;;;4447181;32;20080;-64
2024/04/07 03:12:59;;;;;;;1.15;0.88;;;15.30;99.90;;;;;;4446785;32;20080;-63
2024/04/07 03:15:26;;;;;;;0.40;0.40;;;15.30;99.90;;;;;;4443574;32;20120;-64
2024/04/07 03:17:51;;;;;;;0.90;0.70;;;15.30;99.90;;;;;;4446866;32;20077;-63
2024/04/07 03:20:17;;;;;;;0.50;0.50;;;15.30;99.90;;;;;;4448955;32;20079;-63
2024/04/07 03:22:42;;;;;;;2.15;0.70;;;15.30;99.90;;;;;;4443804;32;20544;-63
2024/04/07 03:25:08;;;;;;;1.50;1.08;;;15.30;99.90;;;;;;4445754;32;20431;-63
2024/04/07 03:27:33;;;;;;;0.43;0.43;;;15.20;99.90;;;;;;4444376;32;20078;-64
2024/04/07 03:29:59;;;;;;;0.80;0.80;;;15.30;99.90;;;;;;4443995;32;20076;-63
2024/04/07 03:32:24;;;;;;;3.30;1.58;;;15.30;99.90;;;;;;4448291;32;20135;-63
2024/04/07 03:34:50;;;;;;;0.50;0.50;;;15.20;99.90;;;;;;4445740;32;20559;-62
2024/04/07 03:37:16;;;;;;;1.25;1.00;;;15.20;99.90;;;;;;4447963;32;20061;-63
2024/04/07 03:39:41;;;;;;;0.45;0.45;;;15.20;99.90;;;;;;4447832;32;20072;-62
2024/04/07 03:42:07;;;;;;;0.60;0.60;;;15.20;99.90;;;;;;4447374;32;20073;-64
2024/04/07 03:44:33;;;;;;;1.27;0.82;;;15.30;99.90;;;;;;4446379;32;20065;-63
2024/04/07 03:46:58;;;;;;;0.95;0.90;;;15.30;99.90;;;;;;4448470;32;20185;-63
2024/04/07 03:49:25;;;;;;;0.85;0.85;;;15.30;99.90;;;;;;4444360;32;20512;-62
2024/04/07 03:51:51;;;;;;;0.37;0.37;;;15.30;99.90;;;;;;4445625;32;20139;-63
2024/04/07 03:54:18;;;;;;;0.52;0.50;;;15.30;99.90;;;;;;4443187;32;20125;-62
2024/04/07 03:56:43;;;;;;;0.50;0.50;;;15.30;99.90;;;;;;4443952;32;20057;-63
2024/04/07 03:59:08;;;;;;;0.60;0.60;;;15.20;99.90;;;;;;4441497;32;20154;-63
2024/04/07 04:01:35;;;;;;;0.35;0.35;;;15.00;99.90;;;;;;4443584;32;20061;-62
2024/04/07 04:04:01;;;;;;;1.23;0.80;;;14.80;99.90;;;;;;4441704;32;20097;-62
2024/04/07 04:06:27;;;;;;;0.50;0.50;;;14.90;99.90;;;;;;4428245;32;20529;-63
2024/04/07 04:08:53;;;;;;;0.70;0.70;;;15.00;99.90;;;;;;4442499;32;20443;-62
2024/04/07 04:11:18;;;;;;;0.50;0.50;;;15.00;99.90;;;;;;4446703;32;20076;-63
2024/04/07 04:13:48;;;;;;;0.65;0.65;;;14.90;99.90;;;;;;4446792;32;20581;-63
2024/04/07 04:16:13;;;;;;;7.33;1.87;;;15.00;99.90;;;;;;4446588;32;20084;-63
2024/04/07 04:18:39;;;;;;;0.85;0.85;;;15.00;99.90;;;;;;4444793;32;20101;-64
2024/04/07 04:21:07;;;;;;;0.65;0.50;;;14.90;99.90;;;;;;4445038;32;20098;-63
2024/04/07 04:23:32;;;;;;;0.50;0.50;;;14.90;99.90;;;;;;4445704;32;20076;-62
2024/04/07 04:25:58;;;;;;;0.55;0.55;;;14.90;99.90;;;;;;4442423;32;20587;-63
2024/04/07 04:28:23;;;;;;;0.47;0.47;;;14.80;99.90;;;;;;4447905;32;20135;-63
2024/04/07 04:30:53;;;;;;;1.17;0.98;;;14.80;99.90;;;;;;4446898;32;20062;-63
2024/04/07 04:33:20;;;;;;;0.90;0.68;;;14.80;99.90;;;;;;4451674;32;20597;-63
2024/04/07 04:35:46;;;;;;;1.85;0.40;;;14.80;99.90;;;;;;4449031;32;20057;-62
2024/04/07 04:38:11;;;;;;;0.50;0.50;;;14.70;99.90;;;;;;4450317;32;20450;-62
2024/04/07 04:40:36;;;;;;;0.75;0.75;;;14.80;99.90;;;;;;4445641;32;20085;-63
2024/04/07 04:43:03;;;;;;;2.30;1.05;;;14.70;99.90;;;;;;4449206;32;20074;-62
2024/04/07 04:45:28;;;;;;;0.45;0.45;;;14.60;99.90;;;;;;4448814;32;20413;-62
2024/04/07 04:47:54;;;;;;;0.80;0.80;;;14.70;99.90;;;;;;4449836;32;20132;-63
2024/04/07 04:50:19;;;;;;;0.35;0.35;;;14.60;99.90;;;;;;4448465;32;20060;-62
2024/04/07 04:52:45;;;;;;;0.98;0.90;;;14.60;99.90;;;;;;4447919;32;20073;-63
2024/04/07 04:55:10;;;;;;;0.50;0.50;;;14.50;99.90;;;;;;4447116;32;20089;-62
2024/04/07 04:57:36;;;;;;;0.75;0.75;;;14.40;99.90;;;;;;4447061;32;20536;-63
2024/04/07 05:00:01;;;;;;;0.77;0.60;;;14.40;99.90;;;;;;4448787;32;20061;-62
2024/04/07 05:02:27;;;;;;;2.67;1.10;;;14.40;99.90;;;;;;4445685;32;20076;-63
2024/04/07 05:04:52;;;;;;;0.75;0.70;;;14.50;99.90;;;;;;4451672;32;20081;-63
2024/04/07 05:07:18;;;;;;;0.40;0.40;;;14.60;99.90;;;;;;4450825;32;20093;-62
2024/04/07 05:09:46;;;;;;;1.40;0.98;;;14.70;99.90;;;;;;4450739;32;20512;-62
2024/04/07 05:12:13;;;;;;;0.77;0.68;;;14.70;99.90;;;;;;4444223;32;20551;-63
2024/04/07 05:14:38;;;;;;;18.75;2.78;;;14.70;99.90;;;;;;4447217;32;20081;-63
2024/04/07 05:17:04;;;;;;;0.70;0.70;;;14.80;99.90;;;;;;4448842;32;20465;-62
2024/04/07 05:19:29;;;;;;;0.57;0.57;;;14.80;99.90;;;;;;4450085;32;20073;-63
2024/04/07 05:21:54;;;;;;;3.95;1.25;;;14.80;99.90;;;;;;4447055;32;20781;-63
2024/04/07 05:24:21;;;;;;;1.00;1.00;;;14.70;99.90;;;;;;4446692;32;20123;-63
2024/04/07 05:26:47;;;;;;;0.60;0.60;;;14.70;99.90;;;;;;4446379;32;20111;-63
2024/04/07 05:29:12;;;;;;;0.55;0.55;;;14.70;99.90;;;;;;4447298;32;20057;-63
2024/04/07 05:31:38;;;;;;;0.45;0.45;;;14.70;99.90;;;;;;4446908;32;20081;-63
2024/04/07 05:34:03;;;;;;;0.60;0.60;;;14.70;99.90;;;;;;4443645;32;20600;-63
2024/04/07 05:36:29;;;;;;;0.95;0.93;;;14.70;99.90;;;;;;4448426;32;20081;-63
2024/04/07 05:38:54;;;;;;;0.52;0.52;;;14.70;99.90;;;;;;4447950;32;20064;-63
2024/04/07 05:41:20;;;;;;;0.77;0.77;;;14.80;99.90;;;;;;4448064;32;20523;-63
2024/04/07 05:43:45;;;;;;;0.50;0.47;;;14.80;99.90;;;;;;4445928;32;20088;-63
2024/04/07 05:46:11;;;;;;;0.60;0.60;;;14.80;99.90;;;;;;4445600;32;20081;-63
2024/04/07 05:48:37;;;;;;;0.50;0.50;;;15.00;99.90;;;;;;4442946;32;20089;-62
2024/04/07 05:51:03;;;;;;;0.60;0.60;;;15.10;99.90;;;;;;4445080;32;20123;-63
2024/04/07 05:53:29;;;;;;;1.65;0.88;;;15.20;99.90;;;;;;4447052;32;20116;-63
2024/04/07 05:55:55;;;;;;;0.60;0.60;;;15.30;99.90;;;;;;4445286;32;20077;-63
2024/04/07 05:58:21;;;;;;;0.50;0.50;;;15.40;99.90;;;;;;4445525;32;20433;-64
2024/04/07 06:00:47;;;;;;;0.52;0.50;;;15.60;99.90;;;;;;4447643;32;20092;-63
2024/04/07 06:03:12;;;;;;;0.50;0.50;;;15.70;99.90;;;;;;4448580;32;20141;-63
2024/04/07 06:05:38;;;;;;;1.12;0.75;;;15.80;99.90;;;;;;4446806;32;20084;-62
2024/04/07 06:08:05;;;;;;;0.75;0.75;;;15.90;99.90;;;;;;4445684;32;20115;-63
2024/04/07 06:10:31;;;;;;;0.45;0.45;;;16.10;99.90;;;;;;4446320;32;20080;-62
2024/04/07 06:12:57;;;;;;;0.50;0.50;;;16.20;99.90;;;;;;4445823;32;20069;-64
2024/04/07 06:15:23;;;;;;;0.60;0.60;;;16.30;99.90;;;;;;4445663;32;20540;-63
2024/04/07 06:17:49;;;;;;;0.55;0.55;;;16.30;99.90;;;;;;4446439;32;20069;-63
2024/04/07 06:20:15;;;;;;;0.50;0.50;;;16.50;99.90;;;;;;4433187;32;20601;-62
2024/04/07 06:22:41;;;;;;;0.65;0.62;;;16.50;99.90;;;;;;4431183;32;20073;-63
2024/04/07 06:25:06;;;;;;;0.73;0.73;;;16.60;99.90;;;;;;4442350;32;20540;-63
2024/04/07 06:27:32;;;;;;;0.68;0.68;;;16.70;99.90;;;;;;4445765;32;20076;-64
2024/04/07 06:30:00;;;;;;;0.70;0.70;;;16.80;99.90;;;;;;4449051;32;20073;-62
2024/04/07 06:32:26;;;;;;;0.57;0.57;;;16.90;99.90;;;;;;4443454;32;20384;-62
2024/04/07 06:34:51;;;;;;;0.50;0.50;;;17.00;99.90;;;;;;4445226;32;20084;-64
2024/04/07 06:37:17;;;;;;;0.60;0.60;;;17.20;99.90;;;;;;4447296;32;20089;-63
2024/04/07 06:39:42;;;;;;;0.43;0.43;;;17.30;99.90;;;;;;4443261;32;20072;-64
2024/04/07 06:42:08;;;;;;;0.52;0.52;;;17.40;99.90;;;;;;4446160;32;20057;-64
2024/04/07 06:44:33;;;;;;;1.23;0.60;;;17.50;99.90;;;;;;4448250;32;20532;-64
2024/04/07 06:47:01;;;;;;;0.40;0.40;;;17.70;99.90;;;;;;4448003;32;20137;-64
2024/04/07 06:49:26;;;;;;;0.52;0.52;;;17.70;99.90;;;;;;4449505;32;20077;-64
2024/04/07 06:51:51;;;;;;;0.40;0.40;;;17.80;99.90;;;;;;4444341;32;20096;-64
2024/04/07 06:54:17;;;;;;;0.40;0.40;;;17.90;99.90;;;;;;4448161;32;20098;-64
2024/04/07 06:56:42;;;;;;;0.40;0.40;;;18.00;99.90;;;;;;4447046;32;20446;-64
2024/04/07 06:59:08;;;;;;;0.65;0.60;;;18.10;99.90;;;;;;4445557;32;20084;-64
2024/04/07 07:01:33;;;;;;;0.30;0.30;;;18.20;99.90;;;;;;4444082;32;20093;-64
2024/04/07 07:03:59;;;;;;;0.47;0.47;;;18.30;99.90;;;;;;4450143;32;20441;-64
2024/04/07 07:06:24;;;;;;;3.45;0.50;;;18.40;99.90;;;;;;4447217;32;20073;-64
2024/04/07 07:08:50;;;;;;;2.42;0.37;;;18.40;99.90;;;;;;4448215;32;20068;-65
2024/04/07 07:11:16;;;;;;;0.40;0.40;;;18.50;99.90;;;;;;4445321;32;20076;-64
2024/04/07 07:13:44;;;;;;;0.60;0.60;;;18.50;99.90;;;;;;4446586;32;20097;-64
2024/04/07 07:16:09;;;;;;;0.40;0.40;;;18.60;99.90;;;;;;4447108;32;20078;-64
2024/04/07 07:18:35;;;;;;;0.57;0.57;;;18.60;99.90;;;;;;4445620;32;20061;-64
2024/04/07 07:21:01;;;;;;;0.88;0.88;;;18.70;99.90;;;;;;4431004;32;20057;-64
2024/04/07 07:23:27;;;;;;;0.40;0.40;;;18.80;99.90;;;;;;4449713;32;20093;-66
2024/04/07 07:25:53;;;;;;;0.40;0.40;;;18.90;99.90;;;;;;4447536;32;20081;-64
2024/04/07 07:28:19;;;;;;;0.40;0.40;;;19.00;99.90;;;;;;4447557;32;20064;-64
2024/04/07 07:30:45;;;;;;;0.85;0.50;;;19.00;99.90;;;;;;4445871;32;20565;-64
2024/04/07 07:33:10;;;;;;;3.10;0.50;;;19.00;99.90;;;;;;4446512;32;20080;-64
2024/04/07 07:35:39;;;;;;;0.50;0.50;;;19.10;99.90;;;;;;4444905;32;20064;-64
2024/04/07 07:38:04;;;;;;;0.30;0.30;;;19.20;99.90;;;;;;4444474;32;20127;-64
2024/04/07 07:40:30;;;;;;;0.40;0.40;;;19.20;99.90;;;;;;4444938;32;20064;-64
2024/04/07 07:42:56;;;;;;;0.40;0.40;;;19.30;99.90;;;;;;4448268;32;20500;-64
2024/04/07 07:45:21;;;;;;;0.32;0.32;;;19.40;99.90;;;;;;4444567;32;20476;-64
2024/04/07 07:47:47;;;;;;;0.30;0.30;;;19.40;99.90;;;;;;4445870;32;20069;-64
2024/04/07 07:50:13;;;;;;;0.45;0.43;;;19.40;99.90;;;;;;4445103;32;20085;-64
2024/04/07 07:52:39;;;;;;;0.32;0.32;;;19.50;99.90;;;;;;4445792;32;20520;-65
2024/04/07 07:55:04;;;;;;;0.30;0.30;;;19.60;99.90;;;;;;4444692;32;20098;-64
2024/04/07 07:57:31;;;;;;;0.30;0.30;;;19.60;99.90;;;;;;4446554;32;20085;-64
2024/04/07 07:59:56;;;;;;;0.57;0.57;;;19.70;99.90;;;;;;4445044;32;20072;-64
2024/04/07 08:02:22;;;;;;;0.50;0.50;;;19.70;99.90;;;;;;4443487;32;20458;-64
2024/04/07 08:04:47;;;;;;;0.43;0.43;;;19.70;99.90;;;;;;4446516;32;20284;-64
2024/04/07 08:07:14;;;;;;;0.47;0.47;;;19.80;99.90;;;;;;4447140;32;20579;-64
2024/04/07 08:09:39;;;;;;;0.40;0.40;;;19.90;99.90;;;;;;4443647;32;20080;-64
2024/04/07 08:12:05;;;;;;;0.30;0.30;;;19.90;99.90;;;;;;4446732;32;20065;-64
2024/04/07 08:14:30;;;;;;;0.35;0.35;;;20.00;99.90;;;;;;4443443;32;20069;-64
2024/04/07 08:16:56;;;;;;;0.20;0.20;;;20.00;99.90;;;;;;4447251;32;20425;-63
2024/04/07 08:19:22;;;;;;;0.43;0.43;;;20.10;99.90;;;;;;4444306;32;20535;-63
2024/04/07 08:21:47;;;;;;;0.40;0.40;;;20.10;99.90;;;;;;4448165;32;20081;-63
2024/04/07 08:24:13;;;;;;;0.30;0.30;;;20.20;99.90;;;;;;4445088;32;20118;-63
2024/04/07 08:26:38;;;;;;;0.35;0.35;;;20.40;99.90;;;;;;4443522;32;20073;-63
2024/04/07 08:29:04;;;;;;;0.30;0.30;;;20.50;99.90;;;;;;4442764;32;20069;-63
2024/04/07 08:31:29;;;;;;;0.40;0.40;;;20.70;99.90;;;;;;4448121;32;20562;-62
2024/04/07 08:33:55;;;;;;;0.20;0.20;;;20.80;99.90;;;;;;4447101;32;20512;-63
2024/04/07 08:36:20;;;;;;;0.30;0.30;;;21.00;99.90;;;;;;4445370;32;20466;-62
2024/04/07 08:38:46;;;;;;;0.35;0.35;;;21.20;99.90;;;;;;4446676;32;20115;-62
2024/04/07 08:41:12;;;;;;;1.58;0.30;;;21.40;99.90;;;;;;4445262;32;20480;-64
2024/04/07 08:43:38;;;;;;;0.30;0.30;;;21.60;99.90;;;;;;4447182;32;20073;-64
2024/04/07 08:46:11;;;;;;;0.20;0.20;;;21.70;99.90;;;;;;4440111;32;20473;-64
2024/04/07 08:48:39;;;;;;;0.35;0.35;;;21.90;99.90;;;;;;4438752;32;20061;-64
2024/04/07 08:51:07;;;;;;;0.45;0.22;;;22.10;99.90;;;;;;4443358;32;20069;-63
2024/04/07 08:53:32;;;;;;;0.20;0.20;;;22.10;99.90;;;;;;4448079;32;20441;-64
2024/04/07 08:55:58;;;;;;;0.20;0.20;;;22.20;99.90;;;;;;4444574;32;20100;-64
2024/04/07 08:58:24;;;;;;;0.50;0.50;;;22.20;99.90;;;;;;4446403;32;20064;-64
2024/04/07 09:00:53;;;;;;;0.40;0.40;;;22.20;99.90;;;;;;4444568;32;20564;-64
2024/04/07 09:03:20;;;;;;;0.30;0.30;;;22.30;99.90;;;;;;4446977;32;20073;-64
2024/04/07 09:05:46;;;;;;;10.43;1.15;;;22.40;99.90;;;;;;4442870;32;20080;-64
2024/04/07 09:08:12;;;;;;;0.50;0.50;;;22.50;99.90;;;;;;4445950;32;20076;-64
2024/04/07 09:10:38;;;;;;;0.30;0.30;;;22.70;99.90;;;;;;4445016;32;20081;-64
2024/04/07 09:13:03;;;;;;;0.62;0.52;;;22.60;99.90;;;;;;4443895;32;20377;-64
2024/04/07 09:15:29;;;;;;;3.20;1.25;;;22.60;99.90;;;;;;4446878;32;20136;-63
2024/04/07 09:17:54;;;;;;;0.37;0.35;;;22.70;99.90;;;;;;4450083;32;20551;-64
2024/04/07 09:20:20;;;;;;;0.28;0.28;;;22.80;99.90;;;;;;4448489;32;20092;-64
2024/04/07 09:22:47;;;;;;;2.75;0.70;;;22.90;99.90;;;;;;4445289;32;20081;-64
2024/04/07 09:25:12;;;;;;;0.52;0.37;;;22.80;99.90;;;;;;4446370;32;20074;-63
2024/04/07 09:27:38;;;;;;;0.20;0.20;;;22.70;99.90;;;;;;4448558;32;20056;-65
2024/04/07 09:30:06;;;;;;;11.57;0.68;;;22.60;99.90;;;;;;4445959;32;20057;-63
2024/04/07 09:32:31;;;;;;;7.75;1.23;;;22.60;99.90;;;;;;4451552;32;20111;-64
2024/04/07 09:34:57;;;;;;;0.28;0.28;;;22.70;99.90;;;;;;4451025;32;20084;-64
2024/04/07 09:37:22;;;;;;;0.22;0.22;;;22.70;99.90;;;;;;4448846;32;20118;-62
2024/04/07 09:39:48;;;;;;;0.45;0.45;;;22.70;99.90;;;;;;4448235;32;20533;-64
2024/04/07 09:42:19;;;;;;;0.62;0.62;;;22.70;99.90;;;;;;4448719;32;20441;-61
2024/04/07 09:44:47;;;;;;;0.25;0.25;;;22.60;99.90;;;;;;4447037;32;20097;-62
2024/04/07 09:47:14;;;;;;;0.20;0.20;;;22.70;99.90;;;;;;4446557;32;20087;-62
2024/04/07 09:49:40;;;;;;;0.20;0.20;;;22.70;99.90;;;;;;4447964;32;20123;-62
2024/04/07 09:52:08;;;;;;;0.22;0.22;;;22.70;99.90;;;;;;4448685;32;20086;-61
2024/04/07 09:54:40;;;;;;;6.12;0.60;;;22.50;99.90;;;;;;4442787;32;20730;-61
2024/04/07 09:57:08;;;;;;;0.30;0.30;;;22.50;99.90;;;;;;4445342;32;20061;-62
2024/04/07 09:59:35;;;;;;;0.70;0.52;;;22.40;99.90;;;;;;4445721;32;20097;-61
2024/04/07 10:04:26;;;;;;;0.47;0.47;;;22.30;99.90;;;;;;4444850;32;20104;-64
2024/04/07 10:06:53;;;;;;;0.30;0.28;;;22.20;99.90;;;;;;4448090;32;20061;-63
2024/04/07 10:09:20;;;;;;;0.90;0.65;;;22.20;99.90;;;;;;4448846;32;20068;-63
2024/04/07 10:11:48;;;;;;;0.57;0.50;;;22.20;99.90;;;;;;4446537;32;20073;-63
2024/04/07 10:14:15;;;;;;;0.40;0.40;;;22.20;99.90;;;;;;4447993;32;20089;-64
2024/04/07 10:16:44;;;;;;;6.12;0.52;;;22.30;99.90;;;;;;4447642;32;20084;-64
2024/04/07 10:19:09;;;;;;;0.28;0.28;;;22.30;99.90;;;;;;4447732;32;20544;-64
2024/04/07 10:21:35;;;;;;;0.50;0.50;;;22.30;99.90;;;;;;4445718;32;20116;-64
2024/04/07 10:24:00;;;;;;;4.30;1.33;;;22.30;99.90;;;;;;4442044;32;20108;-64
2024/04/07 10:26:28;;;;;;;0.68;0.55;;;22.40;99.90;;;;;;4441544;32;20185;-64
2024/04/07 10:28:56;;;;;;;0.30;0.30;;;22.40;99.90;;;;;;4443163;32;20077;-64
2024/04/07 10:31:26;;;;;;;0.22;0.22;;;22.40;99.90;;;;;;4443624;32;20069;-64
2024/04/07 10:33:52;;;;;;;0.55;0.30;;;22.30;99.90;;;;;;4443446;32;20081;-63
2024/04/07 10:36:20;;;;;;;0.62;0.62;;;22.20;99.90;;;;;;4448970;32;20115;-63
2024/04/07 10:38:49;;;;;;;0.40;0.40;;;22.10;99.90;;;;;;4442536;32;20540;-63
2024/04/07 10:41:17;;;;;;;0.28;0.28;;;22.10;99.90;;;;;;4447949;32;20081;-64
2024/04/07 10:43:44;;;;;;;0.25;0.25;;;22.00;99.90;;;;;;4445431;32;20072;-63
2024/04/07 10:46:09;;;;;;;0.30;0.30;;;21.90;99.90;;;;;;4446272;32;20115;-64
2024/04/07 10:48:36;;;;;;;0.75;0.75;;;21.90;99.90;;;;;;4443740;32;20423;-64
2024/04/07 10:51:03;;;;;;;0.37;0.37;;;21.80;99.90;;;;;;4447047;32;20076;-63
2024/04/07 10:53:29;;;;;;;0.30;0.30;;;21.90;99.90;;;;;;4440657;32;20073;-64
2024/04/07 10:55:54;;;;;;;0.35;0.35;;;21.70;99.90;;;;;;4443508;32;20073;-64
2024/04/07 10:58:19;;;;;;;0.40;0.40;;;21.60;99.90;;;;;;4445730;32;20077;-63
2024/04/07 11:00:46;;;;;;;0.32;0.32;;;21.60;99.90;;;;;;4444969;32;20077;-64
2024/04/07 11:03:11;;;;;;;0.40;0.40;;;21.70;99.90;;;;;;4446436;32;20080;-64
2024/04/07 11:05:37;;;;;;;0.70;0.65;;;21.80;99.90;;;;;;4443671;32;20446;-64
2024/04/07 11:08:03;;;;;;;0.22;0.22;;;21.90;99.90;;;;;;4448339;32;20528;-64
2024/04/07 11:10:38;;;;;;;0.30;0.30;;;21.90;99.90;;;;;;4446022;32;20069;-63
2024/04/07 11:13:06;;;;;;;0.30;0.30;;;22.10;99.90;;;;;;4442056;32;20084;-63
2024/04/07 11:15:32;;;;;;;0.30;0.30;;;22.20;99.90;;;;;;4447741;32;20076;-63
2024/04/07 11:17:58;;;;;;;0.55;0.55;;;22.20;99.90;;;;;;4443920;32;20073;-63
2024/04/07 11:20:24;;;;;;;0.20;0.20;;;22.30;99.90;;;;;;4447445;32;20524;-63
2024/04/07 11:22:49;;;;;;;0.43;0.22;;;22.20;99.90;;;;;;4445275;32;20076;-63
2024/04/07 11:25:15;;;;;;;1.45;0.77;;;22.40;99.90;;;;;;4446655;32;20089;-63
2024/04/07 11:27:43;;;;;;;0.30;0.30;;;22.60;99.90;;;;;;4443507;32;20072;-63
2024/04/07 11:30:09;;;;;;;2.22;1.08;;;22.60;99.90;;;;;;4444131;32;20516;-63
2024/04/07 11:32:36;;;;;;;0.37;0.32;;;22.70;99.90;;;;;;4448090;32;20126;-63
2024/04/07 11:35:03;;;;;;;0.17;0.17;;;22.90;99.90;;;;;;4447061;32;20092;-64
2024/04/07 11:37:29;;;;;;;0.30;0.30;;;23.30;99.90;;;;;;4444019;32;20080;-63
2024/04/07 11:39:54;;;;;;;0.37;0.10;;;23.70;99.90;;;;;;4445823;32;20160;-64
2024/04/07 11:42:22;;;;;;;0.32;0.32;;;24.30;99.90;;;;;;4447736;32;20064;-64
2024/04/07 11:44:48;;;;;;;0.68;0.57;;;24.70;99.90;;;;;;4443784;32;20566;-65
2024/04/07 11:47:14;;;;;;;0.50;0.50;;;24.90;99.10;;;;;;4445891;32;20081;-64
2024/04/07 11:49:40;;;;;;;0.52;0.50;;;24.80;99.90;;;;;;4442815;32;20081;-64
2024/04/07 11:52:05;;;;;;;0.28;0.28;;;25.20;98.90;;;;;;4443790;32;20878;-64
2024/04/07 11:54:31;;;;;;;3.50;0.93;;;25.70;98.80;;;;;;4441256;32;83564;-64
2024/04/07 11:56:56;;;;;;;3.35;0.73;;;25.80;98.90;;;;;;4440860;32;20369;-64
2024/04/07 11:59:22;;;;;;;0.10;0.10;;;25.70;99.10;;;;;;4444553;32;20410;-64
2024/04/07 12:01:47;;;;;;;1.98;0.37;;;25.80;98.70;;;;;;4443511;32;20058;-64
2024/04/07 12:04:13;;;;;;;0.25;0.25;;;25.90;99.00;;;;;;4442861;32;20061;-65
2024/04/07 12:06:39;;;;;;;0.15;0.15;;;25.50;98.20;;;;;;4447735;32;20584;-65
2024/04/07 12:09:07;;;;;;;0.10;0.10;;;25.70;98.70;;;;;;4443249;32;20069;-65
2024/04/07 12:11:33;;;;;;;0.20;0.20;;;25.60;98.10;;;;;;4444384;32;20133;-65
2024/04/07 12:13:59;;;;;;;0.10;0.10;;;25.80;97.40;;;;;;4446480;32;20046;-63
2024/04/07 12:16:24;;;;;;;0.20;0.20;;;26.00;96.90;;;;;;4444140;32;20064;-63
2024/04/07 12:18:50;;;;;;;6.55;0.30;;;26.20;96.90;;;;;;4444893;32;20180;-67
2024/04/07 12:21:15;;;;;;;0.52;0.40;;;26.40;98.10;;;;;;4446113;32;20049;-63
2024/04/07 12:23:41;;;;;;;0.20;0.20;;;26.60;97.00;;;;;;4443796;32;20563;-63
2024/04/07 12:26:08;;;;;;;0.10;0.10;;;26.70;95.50;;;;;;4441624;32;20090;-63
2024/04/07 12:28:34;;;;;;;0.30;0.30;;;26.50;95.50;;;;;;4445058;32;20142;-62
2024/04/07 12:30:59;;;;;;;7.22;0.45;;;26.60;96.00;;;;;;4446373;32;20586;-63
2024/04/07 12:33:25;;;;;;;0.10;0.10;;;26.80;96.20;;;;;;4446278;32;20958;-63
2024/04/07 12:35:50;;;;;;;0.70;0.22;;;26.90;95.80;;;;;;4449677;32;20508;-63
2024/04/07 12:38:16;;;;;;;0.45;0.30;;;27.10;96.00;;;;;;4443958;32;20457;-63
2024/04/07 12:40:41;;;;;;;1.70;0.90;;;27.30;95.70;;;;;;4444346;32;21669;-63